Time;durP1;ratioP1;P1;durP2;ratioP2;P2;SDS_P1;SDS_P2;PMS_P1;PMS_P2;Temp;Humidity;BMP_temperature;BMP_pressure;BME280_temperature;BME280_humidity;BME280_pressure;Samples;Min_cycle;Max_cycle;Signal;HPM_P1;HPM_P2
2022/12/30 00:02:29;;;;;;;;;;;17.60;48.50;;;;;;10250056;28;1902;-77
2022/12/30 00:07:24;;;;;;;;;;;17.50;48.40;;;;;;10249785;28;925;-77
2022/12/30 00:33:16;;;;;;;;;;;17.50;48.30;;;;;;10249182;28;1105;-77
2022/12/30 00:38:11;;;;;;;;;;;17.50;48.50;;;;;;10249236;28;829;-77
2022/12/30 00:43:10;;;;;;;;;;;17.50;48.50;;;;;;10248367;28;1963;-77
2022/12/30 00:58:33;;;;;;;;;;;17.50;48.50;;;;;;10247478;28;1910;-77
2022/12/30 01:03:28;;;;;;;;;;;17.50;48.50;;;;;;10247674;28;873;-77
2022/12/30 01:08:24;;;;;;;;;;;17.50;48.60;;;;;;10248087;28;806;-77
2022/12/30 01:13:19;;;;;;;;;;;17.50;48.60;;;;;;10246786;28;854;-77
2022/12/30 01:18:14;;;;;;;;;;;17.50;48.50;;;;;;10247115;28;956;-77
2022/12/30 01:23:10;;;;;;;;;;;17.50;48.30;;;;;;10246780;28;1898;-77
2022/12/30 01:28:05;;;;;;;;;;;17.50;48.30;;;;;;10246734;28;853;-77
2022/12/30 01:33:00;;;;;;;;;;;17.50;48.40;;;;;;10246154;28;1429;-77
2022/12/30 01:37:56;;;;;;;;;;;17.50;48.50;;;;;;10246444;28;766;-77
2022/12/30 01:42:51;;;;;;;;;;;17.50;48.50;;;;;;10246649;28;1910;-77
2022/12/30 01:47:46;;;;;;;;;;;17.50;48.50;;;;;;10246112;28;987;-77
2022/12/30 01:52:42;;;;;;;;;;;17.50;48.40;;;;;;10245180;28;857;-77
2022/12/30 01:57:37;;;;;;;;;;;17.50;48.30;;;;;;10245561;28;889;-77
2022/12/30 02:02:33;;;;;;;;;;;17.50;48.40;;;;;;10245151;28;1894;-77
2022/12/30 02:07:28;;;;;;;;;;;17.50;48.30;;;;;;10246075;28;817;-77
2022/12/30 02:12:23;;;;;;;;;;;17.50;48.40;;;;;;10244519;28;967;-77
2022/12/30 02:17:19;;;;;;;;;;;17.50;48.40;;;;;;10245149;28;964;-77
2022/12/30 02:22:14;;;;;;;;;;;17.50;48.30;;;;;;10244691;28;1898;-77
2022/12/30 02:27:10;;;;;;;;;;;17.50;48.50;;;;;;10244646;28;967;-77
2022/12/30 02:32:05;;;;;;;;;;;17.50;48.40;;;;;;10244459;28;1062;-77
2022/12/30 02:37:00;;;;;;;;;;;17.50;48.60;;;;;;10244355;28;880;-78
2022/12/30 02:47:10;;;;;;;;;;;17.40;48.30;;;;;;10243587;28;667;-77
2022/12/30 02:52:14;;;;;;;;;;;17.50;48.50;;;;;;10244616;28;859;-77
2022/12/30 02:57:10;;;;;;;;;;;17.50;48.60;;;;;;10243945;28;899;-77
2022/12/30 03:07:19;;;;;;;;;;;17.50;48.40;;;;;;10243283;28;593;-77
2022/12/30 03:12:15;;;;;;;;;;;17.40;48.60;;;;;;10243702;28;905;-77
2022/12/30 03:17:10;;;;;;;;;;;17.50;48.40;;;;;;10243625;28;797;-77
2022/12/30 03:22:05;;;;;;;;;;;17.50;48.40;;;;;;10243446;28;1902;-77
2022/12/30 03:27:04;;;;;;;;;;;17.50;48.50;;;;;;10244935;28;928;-77
2022/12/30 03:31:59;;;;;;;;;;;17.40;48.40;;;;;;10243765;28;1003;-78
2022/12/30 03:36:55;;;;;;;;;;;17.40;48.60;;;;;;10244239;28;1220;-77
2022/12/30 03:41:50;;;;;;;;;;;17.40;48.70;;;;;;10243677;28;1975;-77
2022/12/30 03:46:45;;;;;;;;;;;17.50;48.50;;;;;;10247700;28;775;-77
2022/12/30 03:51:41;;;;;;;;;;;17.40;48.50;;;;;;10250437;28;814;-78
2022/12/30 03:56:36;;;;;;;;;;;17.40;48.70;;;;;;10250276;28;870;-77
2022/12/30 04:01:31;;;;;;;;;;;17.40;48.70;;;;;;10249967;28;1899;-77
2022/12/30 04:06:27;;;;;;;;;;;17.50;48.60;;;;;;10249340;28;837;-77
2022/12/30 04:11:22;;;;;;;;;;;17.40;48.60;;;;;;10250446;28;833;-77
2022/12/30 04:16:18;;;;;;;;;;;17.40;48.60;;;;;;10249509;28;860;-77
2022/12/30 04:21:13;;;;;;;;;;;17.40;48.70;;;;;;10249191;28;1961;-77
2022/12/30 04:26:09;;;;;;;;;;;17.40;48.60;;;;;;10249234;28;885;-77
2022/12/30 04:31:04;;;;;;;;;;;17.40;48.60;;;;;;10248885;28;986;-77
2022/12/30 04:36:00;;;;;;;;;;;17.40;48.70;;;;;;10248196;28;1130;-77
2022/12/30 04:40:55;;;;;;;;;;;17.40;48.60;;;;;;10249107;28;1918;-78
2022/12/30 04:45:50;;;;;;;;;;;17.40;48.70;;;;;;10249168;28;825;-77
2022/12/30 04:50:46;;;;;;;;;;;17.40;48.80;;;;;;10248208;28;1374;-77
2022/12/30 04:55:41;;;;;;;;;;;17.40;48.70;;;;;;10247662;28;767;-77
2022/12/30 05:00:36;;;;;;;;;;;17.40;48.80;;;;;;10248403;28;1962;-77
2022/12/30 05:05:32;;;;;;;;;;;17.40;48.90;;;;;;10247855;28;939;-77
2022/12/30 05:10:27;;;;;;;;;;;17.40;48.80;;;;;;10248715;28;812;-77
2022/12/30 05:15:22;;;;;;;;;;;17.50;48.90;;;;;;10246967;28;900;-77
2022/12/30 05:20:18;;;;;;;;;;;17.50;48.90;;;;;;10247231;28;1953;-77
2022/12/30 05:30:27;;;;;;;;;;;17.50;48.90;;;;;;10246204;28;617;-77
2022/12/30 05:35:23;;;;;;;;;;;17.50;48.80;;;;;;10246507;28;1869;-77
2022/12/30 05:40:18;;;;;;;;;;;17.50;48.80;;;;;;10246835;28;1910;-77
2022/12/30 05:45:13;;;;;;;;;;;17.60;48.80;;;;;;10246091;28;881;-77
2022/12/30 05:50:09;;;;;;;;;;;17.60;48.80;;;;;;10245905;28;806;-77
2022/12/30 05:55:04;;;;;;;;;;;17.60;48.90;;;;;;10245124;28;999;-78
2022/12/30 05:59:59;;;;;;;;;;;17.60;48.90;;;;;;10245491;28;1906;-77
2022/12/30 06:04:55;;;;;;;;;;;17.60;48.90;;;;;;10245370;28;939;-77
2022/12/30 06:09:50;;;;;;;;;;;17.60;48.80;;;;;;10243898;28;940;-77
2022/12/30 06:14:46;;;;;;;;;;;17.60;48.80;;;;;;10245683;28;894;-77
2022/12/30 06:19:41;;;;;;;;;;;17.60;48.80;;;;;;10244711;28;1972;-77
2022/12/30 06:24:37;;;;;;;;;;;17.60;48.80;;;;;;10245674;28;902;-77
2022/12/30 06:29:32;;;;;;;;;;;17.60;48.80;;;;;;10244608;28;762;-77
2022/12/30 06:34:27;;;;;;;;;;;17.60;48.90;;;;;;10244503;28;1118;-77
2022/12/30 06:39:23;;;;;;;;;;;17.60;48.90;;;;;;10244307;28;1969;-77
2022/12/30 06:44:18;;;;;;;;;;;17.60;48.90;;;;;;10244769;28;874;-77
2022/12/30 06:49:14;;;;;;;;;;;17.60;49.00;;;;;;10244787;28;952;-77
2022/12/30 06:54:09;;;;;;;;;;;17.60;48.90;;;;;;10244045;28;783;-77
2022/12/30 06:59:04;;;;;;;;;;;17.60;49.60;;;;;;10243862;28;1958;-77
2022/12/30 07:04:00;;;;;;;;;;;17.60;48.90;;;;;;10243902;28;773;-77
2022/12/30 07:08:55;;;;;;;;;;;17.60;48.90;;;;;;10244971;28;885;-77
2022/12/30 07:13:50;;;;;;;;;;;17.60;49.00;;;;;;10244202;28;862;-77
2022/12/30 07:18:46;;;;;;;;;;;17.50;49.00;;;;;;10245392;28;1906;-77
2022/12/30 07:23:41;;;;;;;;;;;17.50;49.00;;;;;;10252131;28;860;-77
2022/12/30 07:28:36;;;;;;;;;;;17.50;49.10;;;;;;10251986;28;877;-77
2022/12/30 07:33:32;;;;;;;;;;;17.50;49.00;;;;;;10251482;28;1458;-77
2022/12/30 07:38:27;;;;;;;;;;;17.50;49.00;;;;;;10251675;28;817;-78
2022/12/30 07:43:22;;;;;;;;;;;17.50;49.00;;;;;;10250132;28;1969;-77
2022/12/30 07:48:18;;;;;;;;;;;17.50;49.10;;;;;;10250600;28;861;-77
2022/12/30 07:53:13;;;;;;;;;;;17.50;49.10;;;;;;10250453;28;780;-77
2022/12/30 07:58:09;;;;;;;;;;;17.50;49.10;;;;;;10250286;28;880;-76
2022/12/30 08:03:04;;;;;;;;;;;17.50;49.10;;;;;;10249706;28;1910;-77
2022/12/30 08:07:59;;;;;;;;;;;17.50;49.10;;;;;;10250073;28;893;-78
2022/12/30 08:12:55;;;;;;;;;;;17.50;49.00;;;;;;10250308;28;912;-77
2022/12/30 08:17:50;;;;;;;;;;;17.50;49.10;;;;;;10249534;28;791;-80
2022/12/30 08:22:45;;;;;;;;;;;17.50;49.10;;;;;;10249246;28;1906;-78
2022/12/30 08:27:41;;;;;;;;;;;17.50;49.00;;;;;;10249736;28;902;-80
2022/12/30 08:32:36;;;;;;;;;;;17.50;49.00;;;;;;10247410;28;1330;-78
2022/12/30 08:37:31;;;;;;;;;;;17.50;49.60;;;;;;10249439;28;893;-78
2022/12/30 08:42:27;;;;;;;;;;;17.50;48.90;;;;;;10248712;28;1910;-78
2022/12/30 08:47:22;;;;;;;;;;;17.50;48.90;;;;;;10249056;28;805;-78
2022/12/30 08:52:18;;;;;;;;;;;17.50;48.90;;;;;;10248218;28;869;-78
2022/12/30 08:57:13;;;;;;;;;;;17.50;49.00;;;;;;10248637;28;861;-78
2022/12/30 09:02:08;;;;;;;;;;;17.60;49.00;;;;;;10248407;28;1906;-77
2022/12/30 09:07:04;;;;;;;;;;;17.50;48.90;;;;;;10247100;28;840;-77
2022/12/30 09:11:59;;;;;;;;;;;17.50;48.90;;;;;;10247445;28;786;-77
2022/12/30 09:16:54;;;;;;;;;;;17.60;48.90;;;;;;10247233;28;761;-77
2022/12/30 09:21:51;;;;;;;;;;;17.50;48.90;;;;;;10246421;28;1902;-77
2022/12/30 09:26:46;;;;;;;;;;;17.60;49.00;;;;;;10246805;28;911;-76
2022/12/30 09:31:41;;;;;;;;;;;17.50;49.00;;;;;;10247261;28;827;-78
2022/12/30 09:36:37;;;;;;;;;;;17.60;49.30;;;;;;10246852;28;1078;-78
2022/12/30 09:46:46;;;;;;;;;;;17.60;49.20;;;;;;10246181;28;601;-77
2022/12/30 09:51:41;;;;;;;;;;;17.50;49.10;;;;;;10246530;28;798;-76
2022/12/30 09:56:37;;;;;;;;;;;17.50;49.20;;;;;;10245189;28;868;-74
2022/12/30 10:01:32;;;;;;;;;;;17.50;49.30;;;;;;10244914;28;1902;-75
2022/12/30 10:06:27;;;;;;;;;;;17.60;49.40;;;;;;10243592;28;1125;-75
2022/12/30 10:11:29;;;;;;;;;;;17.70;49.70;;;;;;10244913;28;838;-78
2022/12/30 10:16:24;;;;;;;;;;;17.70;49.60;;;;;;10244603;28;1076;-77
2022/12/30 10:21:19;;;;;;;;;;;17.50;49.80;;;;;;10244735;28;1910;-77
2022/12/30 10:26:15;;;;;;;;;;;17.50;49.90;;;;;;10244667;28;951;-77
2022/12/30 10:31:10;;;;;;;;;;;17.40;49.90;;;;;;10244598;28;896;-77
2022/12/30 10:36:06;;;;;;;;;;;17.40;49.70;;;;;;10244834;28;1292;-76
2022/12/30 10:41:01;;;;;;;;;;;17.40;49.60;;;;;;10244261;28;1989;-77
2022/12/30 10:45:56;;;;;;;;;;;17.50;49.50;;;;;;10244210;28;774;-77
2022/12/30 10:50:52;;;;;;;;;;;17.50;49.40;;;;;;10244734;28;758;-78
2022/12/30 10:55:47;;;;;;;;;;;17.50;49.30;;;;;;10243625;28;782;-78
2022/12/30 11:00:43;;;;;;;;;;;17.50;49.30;;;;;;10243850;28;1906;-75
2022/12/30 11:05:38;;;;;;;;;;;17.50;49.20;;;;;;10244262;28;1043;-77
2022/12/30 11:10:33;;;;;;;;;;;17.60;49.20;;;;;;10243514;28;800;-77
2022/12/30 11:15:29;;;;;;;;;;;17.60;49.20;;;;;;10244697;28;801;-76
2022/12/30 11:20:24;;;;;;;;;;;17.50;49.10;;;;;;10243800;28;1902;-76
2022/12/30 11:25:19;;;;;;;;;;;17.50;49.10;;;;;;10243599;28;960;-76
2022/12/30 11:30:15;;;;;;;;;;;17.50;49.20;;;;;;10242798;28;885;-75
2022/12/30 11:35:10;;;;;;;;;;;17.50;49.10;;;;;;10242968;28;1396;-76
2022/12/30 11:40:06;;;;;;;;;;;17.50;49.00;;;;;;10242465;28;1922;-75
2022/12/30 11:45:01;;;;;;;;;;;17.50;49.10;;;;;;10243116;28;845;-77
2022/12/30 11:49:57;;;;;;;;;;;17.50;49.00;;;;;;10242673;28;924;-76
2022/12/30 11:54:52;;;;;;;;;;;17.50;49.10;;;;;;10243477;28;813;-77
2022/12/30 11:59:47;;;;;;;;;;;17.50;49.00;;;;;;10242729;28;1969;-76
2022/12/30 12:04:43;;;;;;;;;;;17.50;49.00;;;;;;10243562;28;896;-76
2022/12/30 12:09:38;;;;;;;;;;;17.50;48.90;;;;;;10250151;28;910;-76
2022/12/30 12:14:33;;;;;;;;;;;17.50;49.10;;;;;;10250315;28;967;-77
2022/12/30 12:19:29;;;;;;;;;;;17.50;48.90;;;;;;10249362;28;1902;-76
2022/12/30 12:24:25;;;;;;;;;;;17.50;49.00;;;;;;10249553;28;946;-76
2022/12/30 12:29:20;;;;;;;;;;;17.40;49.00;;;;;;10250355;28;866;-75
2022/12/30 12:34:15;;;;;;;;;;;17.50;48.90;;;;;;10249022;28;1117;-75
2022/12/30 12:39:11;;;;;;;;;;;17.40;48.90;;;;;;10249346;28;1918;-76
2022/12/30 12:44:07;;;;;;;;;;;17.50;49.00;;;;;;10248615;28;774;-75
2022/12/30 12:49:03;;;;;;;;;;;17.50;49.00;;;;;;10248485;28;841;-75
2022/12/30 12:53:58;;;;;;;;;;;17.40;48.90;;;;;;10248280;28;801;-74
2022/12/30 12:58:54;;;;;;;;;;;17.40;48.90;;;;;;10248001;28;1914;-75
2022/12/30 13:03:49;;;;;;;;;;;17.50;49.00;;;;;;10248414;28;810;-75
2022/12/30 13:08:45;;;;;;;;;;;17.50;49.00;;;;;;10248249;28;879;-75
2022/12/30 13:13:40;;;;;;;;;;;17.50;49.10;;;;;;10248076;28;888;-74
2022/12/30 13:18:35;;;;;;;;;;;17.40;49.00;;;;;;10247013;28;778;-75
2022/12/30 13:23:31;;;;;;;;;;;17.50;49.10;;;;;;10247259;28;1890;-75
2022/12/30 13:28:26;;;;;;;;;;;17.50;49.10;;;;;;10246858;28;844;-75
2022/12/30 13:33:22;;;;;;;;;;;17.50;49.00;;;;;;10246785;28;1276;-74
2022/12/30 13:38:17;;;;;;;;;;;17.50;49.10;;;;;;10246612;28;845;-75
2022/12/30 13:43:12;;;;;;;;;;;17.40;48.90;;;;;;10246226;28;1914;-74
2022/12/30 13:48:08;;;;;;;;;;;17.50;49.00;;;;;;10247365;28;830;-75
2022/12/30 13:53:03;;;;;;;;;;;17.40;49.10;;;;;;10245832;28;1057;-74
2022/12/30 13:57:58;;;;;;;;;;;17.50;49.00;;;;;;10245963;28;943;-75
2022/12/30 14:02:54;;;;;;;;;;;17.50;49.20;;;;;;10245486;28;1902;-75
2022/12/30 14:07:49;;;;;;;;;;;17.40;49.10;;;;;;10245087;28;864;-74
2022/12/30 14:12:44;;;;;;;;;;;17.40;49.20;;;;;;10244963;28;825;-74
2022/12/30 14:17:40;;;;;;;;;;;17.40;50.00;;;;;;10244191;28;984;-74
2022/12/30 14:22:35;;;;;;;;;;;17.40;49.80;;;;;;10244582;28;1910;-74
2022/12/30 14:27:31;;;;;;;;;;;17.40;50.40;;;;;;10244041;28;766;-74
2022/12/30 14:32:27;;;;;;;;;;;17.30;49.70;;;;;;10244491;28;1422;-74
2022/12/30 14:37:22;;;;;;;;;;;17.40;49.80;;;;;;10244986;28;857;-74
2022/12/30 14:42:18;;;;;;;;;;;17.40;49.70;;;;;;10244011;28;1906;-74
2022/12/30 14:47:13;;;;;;;;;;;17.40;49.70;;;;;;10243965;28;888;-74
2022/12/30 14:52:11;;;;;;;;;;;17.40;49.70;;;;;;10243273;28;869;-74
2022/12/30 14:57:07;;;;;;;;;;;17.40;49.60;;;;;;10244242;28;845;-74
2022/12/30 15:02:02;;;;;;;;;;;17.40;49.70;;;;;;10243535;28;1902;-74
2022/12/30 15:06:57;;;;;;;;;;;17.40;49.80;;;;;;10242629;28;1083;-74
2022/12/30 15:11:53;;;;;;;;;;;17.40;49.80;;;;;;10243196;28;774;-74
2022/12/30 15:16:48;;;;;;;;;;;17.40;49.80;;;;;;10243011;28;1035;-74
2022/12/30 15:21:43;;;;;;;;;;;17.40;49.80;;;;;;10242666;28;1960;-74
2022/12/30 15:26:39;;;;;;;;;;;17.40;49.80;;;;;;10242835;28;1303;-74
2022/12/30 15:31:34;;;;;;;;;;;17.40;49.90;;;;;;10243476;28;866;-73
2022/12/30 15:36:30;;;;;;;;;;;17.40;49.90;;;;;;10242895;28;1339;-74
2022/12/30 15:41:25;;;;;;;;;;;17.40;49.80;;;;;;10245039;28;1910;-73
2022/12/30 15:46:20;;;;;;;;;;;17.40;49.80;;;;;;10249999;28;933;-75
2022/12/30 15:51:16;;;;;;;;;;;17.40;50.10;;;;;;10249309;28;1575;-75
2022/12/30 15:56:11;;;;;;;;;;;17.40;50.00;;;;;;10249905;28;805;-74
2022/12/30 16:01:06;;;;;;;;;;;17.40;50.00;;;;;;10249448;28;1906;-76
2022/12/30 16:06:02;;;;;;;;;;;17.40;49.90;;;;;;10249546;28;837;-75
2022/12/30 16:10:57;;;;;;;;;;;17.40;49.90;;;;;;10249215;28;764;-75
2022/12/30 16:15:52;;;;;;;;;;;17.50;49.90;;;;;;10246668;28;1070;-75
2022/12/30 16:20:48;;;;;;;;;;;17.50;50.00;;;;;;10249048;28;1902;-75
2022/12/30 16:25:43;;;;;;;;;;;17.50;49.90;;;;;;10248471;28;770;-74
2022/12/30 16:30:38;;;;;;;;;;;17.70;50.90;;;;;;10249551;28;877;-74
2022/12/30 16:35:34;;;;;;;;;;;17.90;51.20;;;;;;10248092;28;1378;-74
2022/12/30 16:40:31;;;;;;;;;;;17.90;51.50;;;;;;10245756;28;1919;-74
2022/12/30 16:45:26;;;;;;;;;;;18.00;51.40;;;;;;10247454;28;826;-76
2022/12/30 16:50:22;;;;;;;;;;;18.00;51.40;;;;;;10248301;28;807;-73
2022/12/30 16:55:17;;;;;;;;;;;18.00;51.50;;;;;;10248964;28;875;-74
2022/12/30 17:00:12;;;;;;;;;;;18.00;51.70;;;;;;10247926;28;1907;-74
2022/12/30 17:05:08;;;;;;;;;;;18.00;51.30;;;;;;10248472;28;939;-74
2022/12/30 17:15:17;;;;;;;;;;;18.00;51.50;;;;;;10247904;28;605;-74
2022/12/30 17:20:12;;;;;;;;;;;18.00;51.60;;;;;;10246618;28;1910;-74
2022/12/30 17:25:08;;;;;;;;;;;18.00;51.50;;;;;;10246428;28;833;-74
2022/12/30 17:30:03;;;;;;;;;;;18.00;51.40;;;;;;10247744;28;865;-75
2022/12/30 17:34:58;;;;;;;;;;;18.00;51.60;;;;;;10245822;28;1457;-75
2022/12/30 17:39:54;;;;;;;;;;;17.80;51.80;;;;;;10246368;28;1918;-74
2022/12/30 17:44:49;;;;;;;;;;;17.70;51.90;;;;;;10246313;28;776;-76
2022/12/30 17:49:45;;;;;;;;;;;17.60;51.90;;;;;;10245523;28;1345;-75
2022/12/30 17:54:40;;;;;;;;;;;17.60;51.80;;;;;;10245955;28;929;-74
2022/12/30 17:59:35;;;;;;;;;;;17.60;51.70;;;;;;10246365;28;1907;-80
2022/12/30 18:04:31;;;;;;;;;;;17.60;51.70;;;;;;10245404;28;797;-74
2022/12/30 18:09:26;;;;;;;;;;;17.60;51.80;;;;;;10246634;28;947;-75
2022/12/30 18:14:21;;;;;;;;;;;17.60;51.70;;;;;;10244709;28;857;-75
2022/12/30 18:19:17;;;;;;;;;;;17.60;51.70;;;;;;10244343;28;1902;-74
2022/12/30 18:24:12;;;;;;;;;;;17.60;51.70;;;;;;10244890;28;931;-75
2022/12/30 18:29:08;;;;;;;;;;;17.60;51.70;;;;;;10244536;28;873;-75
2022/12/30 18:34:03;;;;;;;;;;;17.60;51.70;;;;;;10245044;28;1275;-75
2022/12/30 18:38:58;;;;;;;;;;;17.50;51.60;;;;;;10244446;28;1985;-75
2022/12/30 18:43:54;;;;;;;;;;;17.50;51.60;;;;;;10244689;28;841;-75
2022/12/30 18:48:49;;;;;;;;;;;17.50;51.70;;;;;;10244863;28;863;-75
2022/12/30 18:53:44;;;;;;;;;;;17.60;51.70;;;;;;10244117;28;960;-74
2022/12/30 18:58:40;;;;;;;;;;;17.50;51.70;;;;;;10244649;28;967;-74
2022/12/30 19:03:35;;;;;;;;;;;17.60;51.70;;;;;;10243874;28;1890;-74
2022/12/30 19:08:31;;;;;;;;;;;17.50;52.30;;;;;;10243942;28;857;-74
2022/12/30 19:13:27;;;;;;;;;;;17.50;51.70;;;;;;10243173;28;937;-75
2022/12/30 19:18:22;;;;;;;;;;;17.50;51.80;;;;;;10251398;28;882;-74
2022/12/30 19:23:18;;;;;;;;;;;17.50;51.90;;;;;;10251680;28;1968;-75
2022/12/30 19:28:13;;;;;;;;;;;17.50;51.80;;;;;;10251549;28;846;-73
2022/12/30 19:33:08;;;;;;;;;;;17.50;51.90;;;;;;10251724;28;1300;-72
2022/12/30 19:38:04;;;;;;;;;;;17.50;52.10;;;;;;10251156;28;1174;-73
2022/12/30 19:42:59;;;;;;;;;;;17.60;52.30;;;;;;10251042;28;1914;-74
2022/12/30 19:47:54;;;;;;;;;;;17.50;52.10;;;;;;10250783;28;964;-74
2022/12/30 19:52:52;;;;;;;;;;;17.50;52.20;;;;;;10251254;28;889;-74
2022/12/30 19:57:47;;;;;;;;;;;17.50;52.20;;;;;;10250423;28;874;-74
2022/12/30 20:02:42;;;;;;;;;;;17.50;52.10;;;;;;10249902;28;1898;-74
2022/12/30 20:07:38;;;;;;;;;;;17.50;52.20;;;;;;10250102;28;829;-74
2022/12/30 20:12:33;;;;;;;;;;;17.50;52.20;;;;;;10249929;28;893;-74
2022/12/30 20:17:28;;;;;;;;;;;17.60;52.30;;;;;;10249751;28;936;-74
2022/12/30 20:22:24;;;;;;;;;;;17.50;52.10;;;;;;10249489;28;1898;-74
2022/12/30 20:27:19;;;;;;;;;;;17.60;52.30;;;;;;10247744;28;842;-74
2022/12/30 20:32:14;;;;;;;;;;;17.60;52.30;;;;;;10248887;28;1190;-74
2022/12/30 20:37:10;;;;;;;;;;;17.60;52.30;;;;;;10249868;28;861;-74
2022/12/30 20:42:05;;;;;;;;;;;17.60;52.30;;;;;;10248993;28;1910;-74
2022/12/30 20:47:01;;;;;;;;;;;17.60;52.40;;;;;;10248627;28;778;-74
2022/12/30 20:51:56;;;;;;;;;;;17.60;52.50;;;;;;10248400;28;864;-74
2022/12/30 20:56:51;;;;;;;;;;;17.50;52.40;;;;;;10249064;28;967;-74
2022/12/30 21:01:47;;;;;;;;;;;17.50;52.50;;;;;;10247968;28;2389;-74
2022/12/30 21:06:43;;;;;;;;;;;17.50;52.60;;;;;;10247170;28;884;-74
2022/12/30 21:11:38;;;;;;;;;;;17.50;52.60;;;;;;10248189;28;870;-74
2022/12/30 21:16:33;;;;;;;;;;;17.40;52.70;;;;;;10248002;28;906;-74
2022/12/30 21:21:29;;;;;;;;;;;17.40;52.70;;;;;;10248294;28;1906;-74
2022/12/30 21:26:24;;;;;;;;;;;17.40;52.70;;;;;;10247110;28;766;-74
2022/12/30 21:31:19;;;;;;;;;;;17.40;52.80;;;;;;10246869;28;1105;-74
2022/12/30 21:36:15;;;;;;;;;;;17.40;52.70;;;;;;10247016;28;1407;-74
2022/12/30 22:07:35;;;;;;;;;;;17.40;52.90;;;;;;10245099;28;656;-74
2022/12/30 22:12:31;;;;;;;;;;;17.40;53.00;;;;;;10245962;28;779;-74
2022/12/30 22:17:26;;;;;;;;;;;17.40;52.90;;;;;;10245778;28;770;-74
2022/12/30 22:22:21;;;;;;;;;;;17.40;53.00;;;;;;10244980;28;1898;-74
2022/12/30 22:27:17;;;;;;;;;;;17.40;53.20;;;;;;10244925;28;1027;-74
2022/12/30 22:32:12;;;;;;;;;;;17.40;53.20;;;;;;10244405;28;1059;-73
2022/12/30 22:37:07;;;;;;;;;;;17.40;53.10;;;;;;10244607;28;825;-74
2022/12/30 22:42:03;;;;;;;;;;;17.50;53.20;;;;;;10243977;28;1910;-74
2022/12/30 22:46:58;;;;;;;;;;;17.50;53.20;;;;;;10244904;28;877;-75
2022/12/30 22:51:53;;;;;;;;;;;17.40;53.10;;;;;;10243663;28;909;-75
2022/12/30 22:56:49;;;;;;;;;;;17.50;53.20;;;;;;10245220;28;897;-75
2022/12/30 23:01:44;;;;;;;;;;;17.40;53.20;;;;;;10244619;28;1957;-75
2022/12/30 23:06:40;;;;;;;;;;;17.40;53.30;;;;;;10244509;28;833;-75
2022/12/30 23:11:35;;;;;;;;;;;17.40;53.30;;;;;;10243836;28;822;-75
2022/12/30 23:16:30;;;;;;;;;;;17.40;53.30;;;;;;10244333;28;825;-75
2022/12/30 23:21:26;;;;;;;;;;;17.40;53.20;;;;;;10243610;28;1957;-75
2022/12/30 23:26:21;;;;;;;;;;;17.40;53.30;;;;;;10244127;28;909;-75
2022/12/30 23:31:19;;;;;;;;;;;17.40;53.30;;;;;;10243508;28;798;-75
2022/12/30 23:36:14;;;;;;;;;;;17.40;53.40;;;;;;10242786;28;1292;-75
2022/12/30 23:41:10;;;;;;;;;;;17.40;53.70;;;;;;10243299;28;1910;-75
2022/12/30 23:46:05;;;;;;;;;;;17.40;53.40;;;;;;10243288;28;809;-75
2022/12/30 23:51:00;;;;;;;;;;;17.40;53.30;;;;;;10243221;28;884;-75
2022/12/30 23:55:56;;;;;;;;;;;17.40;53.30;;;;;;10243660;28;850;-75
